Sumiton, Alabama
Current Conditions -  °F | °C
As of 11:55 PM on Saturday 22 Nov 2014 (Local Time) from KJFX Reporting Station
Overcast Overcast  
Wind Chill: 61°   Ceiling: 2200
Heat Index: 61°   Visibility: 10mi
Dew Point: 52°   Wind: 5mph
Humidity: 72%   Direction: 120°ESE
Pressure: 30.07"   Gusts: NA
Location:  33.76°N, 87.05°W
Report Text: KJFX 230555Z AUTO 12004KT 10SM OVC022 16/11 A3007 RMK A02 P-128
Loading
Personal Weather Stations






























Interactive Weather Map New forecast layout! Learn more

10-Day Weather Forecast

Advertisements
Track Severe Weather on mobile